Aérodrome :
LOGIN :

S'inscrire | Disclaimer

   EN    FR    IT 

 










Légende :    VFR   VFR Marginal   IFR   IFR Intensif   IFR Très Intensif
Visi : 
Plafond : 
>= 8 km
>= 3000ft
5 à 8 km
1000 à 3000 ft
1500m à 5 km
500 à 1000 ft
800 à 1500m
200 à 500 ft
< 800m
< 200 ft
Symboles :   Orages  Brouillard  Fortes neiges  Fortes précipitations  Vent > 20 kt
SIGMETs :   Divers  Orages  Givrage  Turbulence  Onde Orograph.  Cendres Volcan.






- Altitude de l'aérodrome : 586 ft
- Code IATA : IEV


UKKK - Zhuliany

DERNIER METAR :
  • 070130Z 25001MPS 5000 BR NSC M05/M06 Q1014 R26/CLRD70 NOSIG

METARs EXPIRÉS :
  • 070100Z VRB01MPS 4600 BR NSC M05/M05 Q1014 R26/CLRD70 NOSIG
  • 070030Z 25002MPS 5000 BR NSC M04/M05 Q1014 R26/CLRD70 NOSIG
  • 070000Z 26001MPS 6000 NSC M03/M04 Q1014 R26/CLRD70 NOSIG
  • 062330Z 24002MPS 5000 BR NSC M03/M04 Q1015 R26/70D NOSIG
  • 062300Z 26002MPS 6000 NSC M02/M04 Q1015 R26/CLRD70 NOSIG

TAF TAF UKKK
Valide du 07 à 00h jusqu'au 08 à 00h UTC


062302Z 0700/0724 23003G08MPS 6000 SCT010 TX04/0712Z TNM03/0705Z
TEMPO 0700/0706 1200 BR BKN004
PROB40
TEMPO 0700/0706 0300 FZFG VV002



MET'MAP, la Météo Aéronautique d'un coup d'oeil ! - Copyright ORBIFLY Décembre 2007 - Disclaimer

ORBIFLY MET'MAP TEAM :

Programmation & Développement : Alexandra Zaïnal
Sur une idée originale de : Baudouin d'Aumeries
Assistance à la programmation : Marc-Olivier Méhu
Soutien technique & logistique : Manuel Goepfert

Contact : metmap@orbifly.com




SOURCES & CREDITS :

   NOAA